Time;durP1;ratioP1;P1;durP2;ratioP2;P2;SDS_P1;SDS_P2;PMS_P1;PMS_P2;Temp;Humidity;BMP_temperature;BMP_pressure;BME280_temperature;BME280_humidity;BME280_pressure;Samples;Min_cycle;Max_cycle;Signal;HPM_P1;HPM_P2
2023/10/10 00:01:03;;;;;;;8.20;4.20;;;;;;;18.62;51.76;100573.41;4935034;29;20091;-80
2023/10/10 00:03:31;;;;;;;10.77;4.00;;;;;;;18.59;51.49;100583.31;4928710;29;20508;-83
2023/10/10 00:06:05;;;;;;;9.00;3.38;;;;;;;18.55;51.73;100576.31;4915720;29;20024;-82
2023/10/10 00:08:35;;;;;;;10.80;3.65;;;;;;;18.49;51.91;100577.41;4915689;29;20409;-82
2023/10/10 00:11:09;;;;;;;13.23;4.28;;;;;;;18.47;51.89;100581.94;4915629;29;20076;-80
2023/10/10 00:13:42;;;;;;;10.18;4.03;;;;;;;18.43;51.76;100578.47;4898441;29;20513;-80
2023/10/10 00:16:12;;;;;;;11.50;4.20;;;;;;;18.45;51.97;100578.44;4915552;29;20020;-80
2023/10/10 00:18:43;;;;;;;12.60;3.92;;;;;;;18.39;51.87;100581.28;4914722;29;20047;-81
2023/10/10 00:21:20;;;;;;;14.57;4.13;;;;;;;18.31;51.82;100582.41;4898501;29;20123;-80
2023/10/10 00:23:54;;;;;;;10.80;3.92;;;;;;;18.24;51.98;100578.19;4915344;29;20292;-83
2023/10/10 00:26:21;;;;;;;11.20;3.72;;;;;;;18.19;52.09;100583.66;4915055;29;20084;-81
2023/10/10 00:28:53;;;;;;;10.87;4.07;;;;;;;18.15;52.42;100575.78;4914987;29;20039;-81
2023/10/10 00:31:20;;;;;;;12.00;3.80;;;;;;;18.12;52.19;100583.88;4914771;29;20497;-82
2023/10/10 00:33:47;;;;;;;11.48;4.40;;;;;;;18.08;52.33;100578.66;4914757;29;20040;-80
2023/10/10 00:36:12;;;;;;;11.70;3.72;;;;;;;18.04;52.33;100573.44;4915048;29;20040;-80
2023/10/10 00:38:38;;;;;;;12.30;3.67;;;;;;;18.04;52.28;100579.66;4915024;29;20066;-80
2023/10/10 00:41:07;;;;;;;8.70;3.17;;;;;;;18.01;52.22;100577.09;4915192;29;20389;-81
2023/10/10 00:43:33;;;;;;;12.82;3.90;;;;;;;17.98;52.32;100581.59;4897443;29;20084;-80
2023/10/10 00:46:04;;;;;;;10.10;3.70;;;;;;;17.96;52.23;100578.97;4902419;29;20040;-80
2023/10/10 00:48:31;;;;;;;8.90;3.53;;;;;;;17.93;52.40;100573.72;4914522;29;20040;-81
2023/10/10 00:51:06;;;;;;;11.55;3.50;;;;;;;17.90;52.46;100579.16;4915050;29;20357;-81
2023/10/10 00:53:39;;;;;;;8.43;3.57;;;;;;;17.87;52.24;100574.81;4914617;29;20048;-81
2023/10/10 00:56:06;;;;;;;9.23;3.28;;;;;;;17.85;52.11;100575.75;4914746;29;20089;-81
2023/10/10 00:58:36;;;;;;;11.30;3.22;;;;;;;17.84;52.20;100574.03;4915052;29;20032;-82
2023/10/10 01:01:14;;;;;;;11.00;3.47;;;;;;;17.77;52.19;100568.88;4914616;29;20043;-82
2023/10/10 01:03:49;;;;;;;12.13;3.47;;;;;;;17.75;52.12;100567.16;4914114;29;20094;-81
2023/10/10 01:06:51;;;;;;;16.23;3.50;;;;;;;17.73;52.29;100569.00;4914542;29;20035;-81
2023/10/10 01:09:21;;;;;;;11.13;2.95;;;;;;;17.69;52.35;100576.19;4909466;29;20062;-81
2023/10/10 01:11:50;;;;;;;10.25;3.50;;;;;;;17.66;52.46;100570.97;4914402;29;20095;-80
2023/10/10 01:14:18;;;;;;;11.13;3.42;;;;;;;17.58;52.29;100568.50;4914513;29;20455;-81
2023/10/10 01:16:47;;;;;;;12.95;3.40;;;;;;;17.57;52.61;100565.91;4914592;29;20032;-81
2023/10/10 01:19:17;;;;;;;10.10;3.90;;;;;;;17.50;52.88;100571.41;4914184;29;20094;-81
2023/10/10 01:21:43;;;;;;;8.88;3.20;;;;;;;17.41;52.93;100571.66;4914328;29;20039;-81
2023/10/10 01:24:12;;;;;;;12.23;3.55;;;;;;;17.40;52.93;100575.22;4914270;29;20107;-80
2023/10/10 01:26:38;;;;;;;10.55;3.80;;;;;;;17.37;53.24;100570.00;4913798;29;20497;-80
2023/10/10 01:29:26;;;;;;;9.82;3.80;;;;;;;17.31;53.04;100564.84;4914088;29;20038;-81
2023/10/10 01:31:53;;;;;;;9.97;3.50;;;;;;;17.29;53.12;100566.69;4914117;29;20047;-80
2023/10/10 01:34:32;;;;;;;12.43;3.60;;;;;;;17.26;53.21;100566.78;4913893;29;20035;-80
2023/10/10 01:37:13;;;;;;;9.70;3.50;;;;;;;17.24;53.57;100569.47;4914483;29;20039;-80
2023/10/10 01:40:16;;;;;;;9.93;3.13;;;;;;;17.23;53.56;100570.38;4914007;29;20079;-80
2023/10/10 01:42:59;;;;;;;12.45;3.35;;;;;;;17.14;53.36;100562.66;4909354;29;20103;-81
2023/10/10 01:45:27;;;;;;;9.63;3.73;;;;;;;17.14;53.25;100566.16;4913946;29;20488;-80
2023/10/10 01:48:02;;;;;;;11.90;4.07;;;;;;;17.07;53.69;100564.59;4913292;29;20516;-81
2023/10/10 01:50:30;;;;;;;9.20;3.30;;;;;;;17.02;53.68;100558.53;4914380;29;20036;-79
2023/10/10 01:52:57;;;;;;;9.40;3.75;;;;;;;17.01;53.75;100557.63;4914027;29;20241;-80
2023/10/10 01:55:24;;;;;;;9.00;3.50;;;;;;;16.96;53.85;100556.84;4913708;29;20051;-79
2023/10/10 01:57:50;;;;;;;8.30;3.07;;;;;;;16.98;53.91;100556.81;4914020;29;20020;-80
2023/10/10 02:02:52;;;;;;;11.65;3.00;;;;;;;16.92;53.78;100553.41;4913138;29;20080;-80
2023/10/10 02:07:59;;;;;;;10.15;3.13;;;;;;;16.90;53.79;100549.03;4914102;29;20532;-80
2023/10/10 02:10:30;;;;;;;11.53;3.27;;;;;;;16.88;53.68;100551.72;4913426;29;20509;-80
2023/10/10 02:12:59;;;;;;;7.22;2.88;;;;;;;16.84;53.99;100550.06;4913846;29;20408;-80
2023/10/10 02:15:32;;;;;;;9.65;3.22;;;;;;;16.80;53.86;100543.09;4913391;29;20109;-79
2023/10/10 02:18:04;;;;;;;8.63;2.92;;;;;;;16.77;54.13;100548.50;4912852;29;20469;-81
2023/10/10 02:23:09;;;;;;;7.07;2.80;;;;;;;16.74;54.17;100548.53;4913190;29;20100;-79
2023/10/10 02:28:03;;;;;;;8.30;3.40;;;;;;;16.74;54.05;100543.22;4913274;29;20031;-79
2023/10/10 02:30:34;;;;;;;8.93;3.33;;;;;;;16.71;54.26;100544.19;4913349;29;20028;-79
2023/10/10 02:35:55;;;;;;;9.25;3.67;;;;;;;16.64;54.29;100542.59;4913039;29;20351;-80
2023/10/10 02:38:31;;;;;;;10.25;3.30;;;;;;;16.63;54.63;100543.50;4912553;29;20028;-79
2023/10/10 02:44:04;;;;;;;8.38;2.55;;;;;;;16.58;54.46;100540.97;4913477;29;20031;-82
2023/10/10 02:46:34;;;;;;;7.97;2.85;;;;;;;16.57;54.68;100544.53;4913509;29;20036;-78
2023/10/10 02:49:12;;;;;;;10.27;3.50;;;;;;;16.55;54.58;100543.69;4912737;29;20036;-79
2023/10/10 02:51:43;;;;;;;9.80;2.92;;;;;;;16.52;54.87;100549.09;4913241;29;20028;-79
2023/10/10 02:59:50;;;;;;;9.00;3.17;;;;;;;16.44;54.75;100548.38;4913051;29;20043;-82
2023/10/10 03:02:19;;;;;;;8.48;2.83;;;;;;;16.43;55.12;100546.63;4912442;29;20058;-78
2023/10/10 03:07:27;;;;;;;10.60;3.27;;;;;;;16.37;55.28;100547.66;4912909;29;20035;-79
2023/10/10 03:12:49;;;;;;;8.75;2.95;;;;;;;16.27;55.29;100547.00;4890074;29;20033;-80
2023/10/10 03:25:48;;;;;;;9.98;3.40;;;;;;;16.02;56.26;100554.66;4912390;29;20035;-81
2023/10/10 03:28:22;;;;;;;10.82;3.30;;;;;;;16.00;55.94;100554.69;4912708;29;20029;-80
2023/10/10 03:31:08;;;;;;;10.50;3.50;;;;;;;15.99;56.35;100558.25;4913676;29;20116;-80
2023/10/10 05:25:24;;;;;;;9.95;3.22;;;;;;;14.84;57.65;100549.84;4895179;29;20043;-82
2023/10/10 05:27:58;;;;;;;9.32;3.17;;;;;;;14.81;57.87;100541.91;4911804;29;20067;-82
2023/10/10 05:30:24;;;;;;;8.68;3.13;;;;;;;14.73;58.16;100551.78;4914069;29;20028;-82
2023/10/10 05:33:02;;;;;;;9.38;3.15;;;;;;;14.68;58.09;100551.81;4913655;29;20196;-82
2023/10/10 05:35:37;;;;;;;8.63;3.17;;;;;;;14.59;58.74;100555.53;4914272;29;20032;-81
2023/10/10 05:38:15;;;;;;;9.43;3.20;;;;;;;14.57;58.25;100546.69;4914280;29;20043;-83
2023/10/10 05:40:40;;;;;;;11.55;3.17;;;;;;;14.56;58.42;100546.72;4915022;29;20039;-81
2023/10/10 05:43:09;;;;;;;9.13;3.50;;;;;;;14.49;58.49;100551.25;4914137;29;20036;-80
2023/10/10 05:45:38;;;;;;;12.55;3.83;;;;;;;14.44;58.75;100558.41;4913719;29;20511;-80
2023/10/10 05:48:05;;;;;;;10.82;3.47;;;;;;;14.39;58.88;100549.66;4913599;29;20408;-82
2023/10/10 05:50:32;;;;;;;8.95;3.25;;;;;;;14.37;58.96;100551.44;4913793;29;20028;-78
2023/10/10 05:53:00;;;;;;;10.40;3.30;;;;;;;14.38;58.70;100550.56;4914019;29;20040;-80
2023/10/10 05:55:33;;;;;;;12.85;3.10;;;;;;;14.39;58.80;100552.31;4902456;29;20028;-79
2023/10/10 05:58:02;;;;;;;9.73;3.10;;;;;;;14.40;58.68;100554.06;4914629;29;20032;-79
2023/10/10 06:00:32;;;;;;;9.55;3.22;;;;;;;14.40;58.66;100559.34;4913332;29;20088;-81
2023/10/10 06:02:58;;;;;;;9.65;2.97;;;;;;;14.39;58.86;100554.94;4912974;29;20063;-82
2023/10/10 06:05:23;;;;;;;18.23;3.70;;;;;;;14.38;58.77;100558.50;4913535;29;20059;-80
2023/10/10 06:07:49;;;;;;;10.03;3.10;;;;;;;14.36;58.91;100555.84;4913458;29;20020;-81
2023/10/10 06:10:18;;;;;;;10.75;3.40;;;;;;;14.34;58.88;100558.50;4914097;29;20036;-80
2023/10/10 06:12:45;;;;;;;14.07;3.50;;;;;;;14.34;58.79;100563.81;4913710;29;20032;-80
2023/10/10 06:15:11;;;;;;;9.95;3.15;;;;;;;14.37;58.97;100557.59;4913516;29;20024;-80
2023/10/10 06:17:38;;;;;;;11.32;3.40;;;;;;;14.37;58.80;100562.91;4913636;29;20043;-78
2023/10/10 06:20:06;;;;;;;13.77;3.53;;;;;;;14.35;58.97;100560.31;4903699;29;20111;-78
2023/10/10 06:22:32;;;;;;;8.88;2.97;;;;;;;14.35;58.91;100565.59;4894195;29;20029;-77
2023/10/10 06:24:58;;;;;;;7.53;3.08;;;;;;;14.38;58.68;100575.25;4912184;29;20029;-78
2023/10/10 06:27:28;;;;;;;8.87;3.13;;;;;;;14.42;58.71;100573.44;4893574;29;20599;-79
2023/10/10 06:29:58;;;;;;;12.20;3.63;;;;;;;14.44;58.40;100579.59;4895694;29;20083;-80
2023/10/10 06:32:31;;;;;;;12.02;3.17;;;;;;;14.42;58.81;100571.66;4912637;29;20051;-78
2023/10/10 06:37:41;;;;;;;9.03;2.83;;;;;;;14.34;59.11;100569.13;4913211;29;20116;-80
2023/10/10 06:40:08;;;;;;;10.65;3.00;;;;;;;14.33;59.20;100577.97;4912720;29;20028;-80
2023/10/10 06:42:38;;;;;;;16.92;3.70;;;;;;;14.33;59.67;100572.66;4912428;29;20315;-80
2023/10/10 06:45:11;;;;;;;10.63;3.20;;;;;;;14.34;59.51;100579.72;4912560;29;20028;-78
2023/10/10 06:47:39;;;;;;;9.43;2.90;;;;;;;14.35;59.38;100578.84;4912068;29;20036;-78
2023/10/10 06:50:13;;;;;;;10.73;3.38;;;;;;;14.40;59.35;100575.25;4913383;29;20040;-78
2023/10/10 06:52:38;;;;;;;11.68;3.55;;;;;;;14.47;59.27;100575.13;4912979;29;20036;-78
2023/10/10 06:55:21;;;;;;;14.07;3.08;;;;;;;14.51;59.32;100570.66;4912979;29;20050;-79
2023/10/10 06:57:58;;;;;;;10.40;3.33;;;;;;;14.52;59.58;100571.53;4894271;29;20033;-80
2023/10/10 07:00:43;;;;;;;8.07;3.10;;;;;;;14.54;59.46;100577.69;4894121;29;20035;-81
2023/10/10 07:03:10;;;;;;;14.68;3.40;;;;;;;14.56;59.63;100579.38;4896725;29;20024;-79
2023/10/10 07:05:35;;;;;;;10.88;3.50;;;;;;;14.61;59.52;100582.88;4913231;29;20028;-79
2023/10/10 07:08:19;;;;;;;17.37;4.33;;;;;;;14.66;59.43;100584.56;4913148;29;20594;-79
2023/10/10 07:10:45;;;;;;;13.63;3.70;;;;;;;14.71;59.64;100585.41;4912899;29;20039;-78
2023/10/10 07:13:18;;;;;;;15.75;3.78;;;;;;;14.76;59.57;100583.53;4913261;29;20123;-80
2023/10/10 07:15:51;;;;;;;11.73;3.95;;;;;;;14.78;60.42;100579.97;4895659;29;20072;-78
2023/10/10 07:18:22;;;;;;;11.35;3.42;;;;;;;14.92;60.49;100582.38;4912175;29;20091;-81
2023/10/10 07:21:04;;;;;;;11.77;4.00;;;;;;;15.20;59.87;100584.56;4912614;29;20031;-80
2023/10/10 07:23:42;;;;;;;10.40;3.50;;;;;;;15.47;60.00;100579.63;4912757;29;20511;-80
2023/10/10 07:26:19;;;;;;;9.70;3.58;;;;;;;15.68;59.56;100580.13;4912748;29;20040;-79
2023/10/10 07:28:48;;;;;;;21.52;3.83;;;;;;;15.92;58.67;100585.84;4912689;29;20032;-79
2023/10/10 07:31:24;;;;;;;14.38;3.25;;;;;;;16.11;58.77;100580.16;4911398;29;20039;-80
2023/10/10 07:33:56;;;;;;;11.40;3.80;;;;;;;16.26;57.96;100584.25;4911870;29;20316;-79
2023/10/10 07:36:26;;;;;;;15.40;4.38;;;;;;;16.36;58.58;100581.34;4912245;29;20172;-79
2023/10/10 07:39:32;;;;;;;15.13;3.60;;;;;;;16.60;57.71;100573.69;4913318;29;20377;-80
2023/10/10 07:41:45;;;;;;;15.80;4.25;;;;;;;16.77;57.49;100580.41;4915699;29;20032;-79
2023/10/10 07:44:10;;;;;;;12.88;3.53;;;;;;;16.91;57.49;100583.56;4916186;29;20032;-81
2023/10/10 07:46:36;;;;;;;12.30;3.80;;;;;;;17.04;57.23;100577.97;4916275;29;20047;-78
2023/10/10 07:49:03;;;;;;;12.02;3.92;;;;;;;17.17;56.99;100581.19;4915706;29;20028;-78
2023/10/10 07:51:29;;;;;;;13.07;3.58;;;;;;;17.32;56.80;100578.09;4916318;29;20080;-80
2023/10/10 07:54:02;;;;;;;11.17;3.33;;;;;;;17.56;56.69;100570.34;4915754;29;20028;-81
2023/10/10 07:56:31;;;;;;;13.45;3.78;;;;;;;17.73;56.12;100572.56;4915780;29;20405;-79
2023/10/10 07:58:57;;;;;;;11.20;4.18;;;;;;;17.90;55.84;100585.38;4916143;29;20544;-78
2023/10/10 08:01:23;;;;;;;11.53;3.50;;;;;;;18.11;55.77;100574.13;4916089;29;20111;-79
2023/10/10 08:03:49;;;;;;;15.75;3.65;;;;;;;18.33;55.63;100577.88;4915655;29;20035;-79
2023/10/10 08:06:22;;;;;;;12.40;3.60;;;;;;;18.58;55.11;100581.56;4916206;29;20457;-82
2023/10/10 08:08:56;;;;;;;11.77;3.78;;;;;;;18.76;54.89;100580.09;4915778;29;20547;-81
2023/10/10 08:11:35;;;;;;;14.47;3.80;;;;;;;18.92;54.69;100586.63;4915863;29;20047;-79
2023/10/10 08:14:05;;;;;;;16.77;4.13;;;;;;;19.06;54.76;100577.34;4915756;29;20032;-82
2023/10/10 08:16:33;;;;;;;19.58;4.18;;;;;;;19.16;54.69;100578.75;4915480;29;20141;-80
2023/10/10 08:19:04;;;;;;;10.88;3.55;;;;;;;19.28;54.47;100581.94;4915583;29;20035;-79
2023/10/10 08:21:36;;;;;;;11.55;3.40;;;;;;;19.39;54.37;100579.72;4916222;29;20485;-80
2023/10/10 08:24:06;;;;;;;12.47;3.53;;;;;;;19.58;54.23;100584.41;4898557;29;20099;-79
2023/10/10 08:26:39;;;;;;;10.57;3.47;;;;;;;19.69;53.61;100576.91;4915297;29;20575;-82
2023/10/10 08:29:06;;;;;;;14.52;3.72;;;;;;;19.82;53.67;100576.41;4915556;29;20032;-79
2023/10/10 08:31:32;;;;;;;17.63;3.60;;;;;;;19.97;53.21;100572.31;4915628;29;20278;-79
2023/10/10 08:33:58;;;;;;;19.70;3.95;;;;;;;20.13;52.88;100573.47;4914890;29;20290;-80
2023/10/10 08:36:23;;;;;;;12.80;4.23;;;;;;;20.26;52.64;100573.00;4915291;29;20083;-82
2023/10/10 08:38:56;;;;;;;14.37;3.70;;;;;;;20.35;52.44;100565.47;4915554;29;20032;-81
2023/10/10 08:41:26;;;;;;;17.67;3.95;;;;;;;20.53;52.50;100571.00;4885198;29;20036;-79
2023/10/10 08:43:53;;;;;;;10.93;3.92;;;;;;;20.70;52.26;100570.31;4896858;29;20443;-78
2023/10/10 08:46:26;;;;;;;8.65;3.65;;;;;;;20.85;51.66;100563.47;4896713;29;20058;-78
2023/10/10 08:48:54;;;;;;;13.13;3.93;;;;;;;21.14;51.55;100573.88;4895597;29;20055;-78
2023/10/10 08:51:19;;;;;;;12.52;4.30;;;;;;;21.34;50.98;100559.59;4895587;29;20025;-79
2023/10/10 08:53:47;;;;;;;12.87;4.07;;;;;;;21.50;51.09;100557.97;4902141;29;20088;-80
2023/10/10 08:56:14;;;;;;;14.77;4.00;;;;;;;21.63;50.97;100560.13;4914988;29;20499;-82
2023/10/10 08:58:41;;;;;;;11.23;3.72;;;;;;;21.71;50.97;100563.34;4914908;29;20520;-78
2023/10/10 09:01:08;;;;;;;11.25;4.00;;;;;;;21.80;50.73;100560.22;4915122;29;20522;-79
2023/10/10 09:03:34;;;;;;;11.98;4.15;;;;;;;21.93;50.42;100562.34;4914532;29;20048;-81
2023/10/10 09:06:14;;;;;;;11.50;3.87;;;;;;;22.05;50.26;100561.75;4914928;29;20092;-81
2023/10/10 09:08:43;;;;;;;12.85;4.15;;;;;;;22.28;49.99;100562.44;4906711;29;20043;-77
2023/10/10 09:11:12;;;;;;;12.20;4.10;;;;;;;22.42;49.95;100558.25;4896220;29;20120;-78
2023/10/10 09:13:52;;;;;;;16.02;4.20;;;;;;;22.53;49.56;100555.06;4913180;29;20523;-81
2023/10/10 09:16:38;;;;;;;12.57;4.53;;;;;;;22.72;49.40;100546.94;4914816;29;20048;-81
2023/10/10 09:19:11;;;;;;;13.53;3.90;;;;;;;22.80;49.37;100542.94;4914384;29;20473;-81
2023/10/10 09:21:59;;;;;;;15.52;4.90;;;;;;;22.91;49.20;100546.91;4914872;29;20056;-79
2023/10/10 09:24:28;;;;;;;14.48;4.57;;;;;;;23.11;48.78;100544.97;4914602;29;20060;-80
2023/10/10 09:27:07;;;;;;;19.27;4.75;;;;;;;23.28;48.73;100546.81;4914414;29;20024;-80
2023/10/10 09:29:45;;;;;;;12.07;4.25;;;;;;;23.46;48.32;100540.44;4914082;29;20091;-80
2023/10/10 09:32:15;;;;;;;15.87;5.10;;;;;;;23.62;47.86;100547.69;4914025;29;20227;-80
2023/10/10 09:34:41;;;;;;;17.70;4.60;;;;;;;23.74;47.43;100538.94;4914274;29;20409;-79
2023/10/10 09:37:17;;;;;;;13.37;4.90;;;;;;;23.89;47.40;100539.94;4914641;29;20052;-82
2023/10/10 09:39:54;;;;;;;13.43;4.35;;;;;;;24.10;47.26;100544.22;4914335;29;20088;-80
2023/10/10 09:42:45;;;;;;;20.52;5.00;;;;;;;24.22;46.84;100538.13;4914214;29;20084;-83
2023/10/10 09:45:25;;;;;;;16.55;5.00;;;;;;;24.40;46.47;100535.34;4914119;29;20390;-80
2023/10/10 09:48:04;;;;;;;11.65;4.57;;;;;;;24.52;46.25;100529.25;4913723;29;20450;-80
2023/10/10 09:50:35;;;;;;;18.70;4.67;;;;;;;24.72;46.00;100532.59;4914004;29;20404;-80
2023/10/10 09:53:02;;;;;;;14.63;5.05;;;;;;;24.94;45.22;100524.97;4914617;29;20156;-80
2023/10/10 10:06:27;;;;;;;11.57;4.53;;;;;;;25.48;44.33;100504.66;4898110;29;20040;-82
2023/10/10 10:09:17;;;;;;;14.23;4.80;;;;;;;25.63;44.04;100505.53;4903755;29;20048;-82
2023/10/10 10:12:08;;;;;;;14.68;4.38;;;;;;;25.80;43.64;100504.44;4913777;29;20158;-81
2023/10/10 10:14:54;;;;;;;12.05;4.22;;;;;;;25.96;43.05;100500.75;4913734;29;20493;-79
2023/10/10 10:17:56;;;;;;;15.70;4.33;;;;;;;26.14;43.09;100495.09;4913449;29;20092;-81
2023/10/10 10:23:27;;;;;;;14.07;4.85;;;;;;;26.49;42.37;100497.31;4883710;29;20093;-79
2023/10/10 10:25:54;;;;;;;15.73;4.55;;;;;;;26.80;42.13;100496.09;4913115;29;20397;-81
2023/10/10 10:28:28;;;;;;;11.52;4.63;;;;;;;26.99;41.39;100494.81;4913669;29;20539;-80
2023/10/10 10:30:54;;;;;;;15.93;4.70;;;;;;;27.07;41.38;100497.00;4913384;29;20063;-80
2023/10/10 10:33:23;;;;;;;12.43;4.65;;;;;;;27.20;41.00;100492.47;4912996;29;20583;-80
2023/10/10 10:35:56;;;;;;;12.63;4.70;;;;;;;27.40;40.71;100487.47;4913463;29;20043;-79
2023/10/10 10:38:25;;;;;;;11.43;4.80;;;;;;;27.39;40.57;100488.44;4912034;29;20066;-80
2023/10/10 10:41:04;;;;;;;10.90;4.20;;;;;;;27.46;40.16;100481.63;4913255;29;20040;-84
2023/10/10 10:43:38;;;;;;;14.03;5.13;;;;;;;27.49;39.96;100486.81;4913079;29;20088;-79
2023/10/10 10:46:15;;;;;;;13.07;4.53;;;;;;;27.60;40.25;100487.88;4913382;29;20031;-80
2023/10/10 10:48:47;;;;;;;12.70;4.85;;;;;;;27.82;39.55;100483.63;4912950;29;20099;-80
2023/10/10 10:51:23;;;;;;;13.07;4.65;;;;;;;27.96;39.49;100480.75;4914014;29;20036;-82
2023/10/10 10:53:56;;;;;;;13.52;4.80;;;;;;;28.13;38.94;100476.78;4913123;29;20031;-80
2023/10/10 11:01:17;;;;;;;14.05;5.30;;;;;;;28.55;38.00;100470.97;4903809;29;20197;-82
2023/10/10 11:03:44;;;;;;;9.02;4.68;;;;;;;28.63;37.79;100457.69;4901069;29;20556;-82
2023/10/10 11:06:14;;;;;;;11.33;4.20;;;;;;;28.81;37.50;100464.53;4913114;29;20039;-83
2023/10/10 11:14:00;;;;;;;12.30;4.10;;;;;;;29.15;36.44;100462.75;4913756;29;20126;-81
2023/10/10 11:16:39;;;;;;;12.77;4.47;;;;;;;29.32;36.06;100457.81;4916835;29;20087;-81
2023/10/10 11:19:25;;;;;;;12.00;4.43;;;;;;;29.36;36.12;100445.72;4916233;29;20056;-80
2023/10/10 11:22:00;;;;;;;13.48;4.50;;;;;;;29.53;35.93;100449.81;4917121;29;20115;-82
2023/10/10 11:24:29;;;;;;;10.27;4.32;;;;;;;29.72;35.62;100442.88;4916523;29;20107;-83
2023/10/10 11:29:42;;;;;;;13.80;4.65;;;;;;;30.01;35.11;100431.44;4916395;29;20418;-81
2023/10/10 11:32:11;;;;;;;9.80;3.97;;;;;;;30.21;34.28;100421.63;4916339;29;20036;-80
2023/10/10 11:34:44;;;;;;;11.48;4.30;;;;;;;30.21;34.39;100430.66;4916472;29;20513;-80
2023/10/10 11:37:32;;;;;;;14.95;4.57;;;;;;;30.23;34.24;100419.66;4916417;29;20718;-82
2023/10/10 11:40:19;;;;;;;11.85;4.50;;;;;;;30.25;34.07;100417.66;4916206;29;20047;-80
2023/10/10 11:42:47;;;;;;;13.02;4.82;;;;;;;30.47;33.55;100407.66;4916350;29;20032;-80
2023/10/10 11:45:17;;;;;;;11.27;4.23;;;;;;;30.63;33.14;100401.81;4916692;29;20032;-82
2023/10/10 11:47:44;;;;;;;10.40;4.50;;;;;;;30.70;33.04;100402.13;4918198;29;20028;-79
2023/10/10 11:50:17;;;;;;;19.58;5.13;;;;;;;30.70;32.88;100392.13;4919159;29;20040;-81
2023/10/10 11:53:12;;;;;;;11.82;4.85;;;;;;;30.65;33.18;100386.25;4916417;29;20024;-81
2023/10/10 11:55:40;;;;;;;14.13;4.60;;;;;;;30.97;32.25;100381.66;4898054;29;20028;-81
2023/10/10 11:58:08;;;;;;;11.97;4.17;;;;;;;31.08;32.69;100376.13;4914579;29;20515;-82
2023/10/10 12:00:44;;;;;;;11.40;4.60;;;;;;;31.23;31.91;100376.66;4915872;29;20413;-80
2023/10/10 12:03:14;;;;;;;14.18;4.60;;;;;;;31.29;31.94;100370.63;4915939;29;20259;-80
2023/10/10 12:05:49;;;;;;;9.95;4.30;;;;;;;31.41;31.61;100363.22;4915874;29;20028;-79
2023/10/10 12:08:22;;;;;;;9.23;4.10;;;;;;;31.45;31.67;100358.38;4915999;29;20035;-80
2023/10/10 12:10:52;;;;;;;12.43;3.87;;;;;;;31.53;30.70;100363.13;4915905;29;20028;-80
2023/10/10 12:15:58;;;;;;;10.90;4.10;;;;;;;31.63;30.41;100350.38;4915669;29;20105;-80
2023/10/10 12:18:30;;;;;;;10.40;4.03;;;;;;;31.71;30.11;100347.81;4915571;29;20031;-80
2023/10/10 12:20:56;;;;;;;8.73;4.10;;;;;;;31.85;29.66;100345.69;4916286;29;20032;-79
2023/10/10 12:23:21;;;;;;;11.57;4.30;;;;;;;31.98;29.61;100337.22;4915665;29;20401;-80
2023/10/10 12:25:49;;;;;;;11.63;3.90;;;;;;;32.01;29.64;100332.34;4914349;29;20024;-80
2023/10/10 12:28:17;;;;;;;9.80;3.72;;;;;;;32.00;29.52;100329.75;4915913;29;20277;-80
2023/10/10 12:30:44;;;;;;;10.95;4.00;;;;;;;31.96;29.25;100321.03;4915427;29;20040;-81
2023/10/10 12:33:13;;;;;;;10.52;4.30;;;;;;;32.02;29.20;100322.31;4915025;29;20056;-81
2023/10/10 12:35:43;;;;;;;11.52;4.07;;;;;;;32.11;29.11;100320.59;4915510;29;20442;-83
2023/10/10 12:38:15;;;;;;;10.80;4.00;;;;;;;32.30;28.73;100319.66;4915299;29;20168;-80
2023/10/10 12:40:43;;;;;;;8.68;4.15;;;;;;;32.38;28.99;100316.25;4915365;29;20069;-81
2023/10/10 12:43:11;;;;;;;10.43;3.95;;;;;;;32.41;29.02;100314.09;4915357;29;20040;-82
2023/10/10 12:45:37;;;;;;;13.90;4.38;;;;;;;32.41;28.59;100314.09;4915863;29;20028;-84
2023/10/10 12:48:04;;;;;;;10.15;3.80;;;;;;;32.47;28.57;100312.66;4914844;29;20071;-80
2023/10/10 12:50:30;;;;;;;10.40;3.90;;;;;;;32.54;28.44;100304.72;4914959;29;20039;-80
2023/10/10 12:53:07;;;;;;;10.50;4.05;;;;;;;32.61;28.13;100306.69;4912562;29;20083;-81
2023/10/10 12:55:48;;;;;;;12.18;4.30;;;;;;;32.61;27.84;100301.25;4915009;29;20032;-81
2023/10/10 12:58:22;;;;;;;10.20;4.03;;;;;;;32.63;28.01;100296.50;4910461;29;20062;-82
2023/10/10 13:00:52;;;;;;;13.02;4.10;;;;;;;32.61;27.49;100294.97;4915114;29;20110;-81
2023/10/10 13:03:27;;;;;;;9.23;3.63;;;;;;;32.63;27.97;100293.78;4914594;29;20444;-80
2023/10/10 13:05:59;;;;;;;14.38;4.13;;;;;;;32.70;27.92;100291.31;4914862;29;20043;-81
2023/10/10 13:08:38;;;;;;;12.85;4.20;;;;;;;32.74;27.69;100283.72;4914856;29;20432;-81
2023/10/10 13:11:14;;;;;;;11.27;4.35;;;;;;;32.78;27.45;100287.84;4914698;29;20040;-79
2023/10/10 13:13:48;;;;;;;11.75;4.15;;;;;;;32.84;27.51;100279.06;4914489;29;20051;-82
2023/10/10 13:19:05;;;;;;;12.35;3.92;;;;;;;32.83;27.42;100277.34;4913855;29;20088;-81
2023/10/10 13:21:31;;;;;;;12.57;4.50;;;;;;;32.92;27.25;100276.47;4914581;29;20028;-81
2023/10/10 13:23:56;;;;;;;13.43;4.27;;;;;;;33.00;27.07;100272.97;4914480;29;20032;-82
2023/10/10 13:26:22;;;;;;;11.00;4.55;;;;;;;33.13;27.20;100278.03;4914118;29;20497;-81
2023/10/10 13:28:48;;;;;;;10.40;3.87;;;;;;;33.23;27.09;100267.06;4914501;29;20044;-82
2023/10/10 13:31:15;;;;;;;12.98;4.28;;;;;;;33.39;26.87;100271.84;4914315;29;20039;-80
2023/10/10 13:33:41;;;;;;;9.73;4.27;;;;;;;33.40;26.95;100270.84;4913825;29;20048;-82
2023/10/10 13:36:11;;;;;;;11.02;4.65;;;;;;;33.42;26.88;100268.84;4914325;29;20382;-81
2023/10/10 13:38:50;;;;;;;13.80;4.97;;;;;;;33.46;26.96;100267.50;4914300;29;20039;-82
2023/10/10 13:41:18;;;;;;;10.80;4.20;;;;;;;33.52;26.88;100257.84;4914502;29;20032;-80
2023/10/10 13:43:48;;;;;;;14.80;4.55;;;;;;;33.55;26.79;100262.13;4913997;29;20438;-81
2023/10/10 13:46:16;;;;;;;13.45;4.40;;;;;;;33.51;26.89;100267.03;4914000;29;20508;-81
2023/10/10 13:48:42;;;;;;;14.55;4.60;;;;;;;33.48;26.68;100261.88;4913377;29;20032;-81
2023/10/10 13:51:08;;;;;;;12.97;4.10;;;;;;;33.54;26.30;100260.41;4913913;29;20123;-80
2023/10/10 13:53:34;;;;;;;12.68;4.10;;;;;;;33.54;26.79;100258.56;4913606;29;20470;-83
2023/10/10 13:56:05;;;;;;;12.30;4.05;;;;;;;33.60;26.33;100254.31;4914279;29;20406;-85
2023/10/10 13:58:31;;;;;;;11.40;4.18;;;;;;;33.66;26.60;100255.56;4913987;29;20034;-80
2023/10/10 14:01:14;;;;;;;12.43;3.90;;;;;;;33.69;26.07;100245.19;4913039;29;20032;-82
2023/10/10 14:03:45;;;;;;;10.02;4.22;;;;;;;33.74;25.90;100247.44;4910363;29;20024;-82
2023/10/10 14:06:21;;;;;;;9.38;3.78;;;;;;;33.69;26.33;100247.91;4913227;29;20491;-80
2023/10/10 14:08:50;;;;;;;11.32;4.63;;;;;;;33.78;25.73;100240.66;4911429;29;20028;-80
2023/10/10 14:11:22;;;;;;;14.47;4.30;;;;;;;33.86;26.06;100248.03;4912994;29;20401;-79
2023/10/10 14:13:52;;;;;;;11.10;3.80;;;;;;;33.91;25.25;100243.81;4912884;29;20028;-79
2023/10/10 14:16:18;;;;;;;11.00;3.95;;;;;;;33.79;25.33;100234.19;4913439;29;20393;-80
2023/10/10 14:18:54;;;;;;;13.30;4.47;;;;;;;33.68;25.41;100237.16;4912829;29;20567;-80
2023/10/10 14:21:27;;;;;;;14.70;4.07;;;;;;;33.64;25.28;100231.13;4913069;29;20051;-80
2023/10/10 14:24:13;;;;;;;10.87;3.73;;;;;;;33.70;25.15;100235.97;4911282;29;20047;-80
2023/10/10 14:26:43;;;;;;;12.63;3.88;;;;;;;33.61;25.00;100231.44;4911291;29;20024;-80
2023/10/10 14:29:12;;;;;;;10.70;3.67;;;;;;;33.59;25.07;100233.50;4913033;29;20225;-80
2023/10/10 14:31:47;;;;;;;11.00;3.88;;;;;;;33.62;25.36;100233.16;4913078;29;20043;-79
2023/10/10 14:34:24;;;;;;;10.90;4.18;;;;;;;33.59;25.48;100230.75;4912785;29;20175;-79
2023/10/10 14:36:51;;;;;;;11.13;3.80;;;;;;;33.54;25.43;100236.72;4912851;29;20079;-80
2023/10/10 14:39:30;;;;;;;10.23;3.85;;;;;;;33.53;25.43;100232.28;4913312;29;20047;-81
2023/10/10 14:41:57;;;;;;;9.38;3.22;;;;;;;33.46;25.45;100240.22;4909573;29;20043;-82
2023/10/10 14:44:26;;;;;;;12.80;3.78;;;;;;;33.40;25.34;100229.03;4906763;29;20028;-81